sensor_id;sensor_type;location;lat;lon;timestamp;pressure;altitude;pressure_sealevel;temperature;humidity
72896;BME280;61036;53.224;6.554;2024-03-17T00:01:44;100175.22;;;5.13;100.00
72896;BME280;61036;53.224;6.554;2024-03-17T00:04:09;100180.44;;;5.14;100.00
72896;BME280;61036;53.224;6.554;2024-03-17T00:06:35;100194.41;;;5.05;100.00
72896;BME280;61036;53.224;6.554;2024-03-17T00:09:00;100197.19;;;5.03;100.00
72896;BME280;61036;53.224;6.554;2024-03-17T00:11:35;100194.31;;;4.92;100.00
72896;BME280;61036;53.224;6.554;2024-03-17T00:14:03;100199.25;;;4.98;100.00
72896;BME280;61036;53.224;6.554;2024-03-17T00:16:30;100202.22;;;5.08;100.00
72896;BME280;61036;53.224;6.554;2024-03-17T00:18:55;100218.16;;;4.95;100.00
72896;BME280;61036;53.224;6.554;2024-03-17T00:21:21;100215.97;;;5.02;100.00
72896;BME280;61036;53.224;6.554;2024-03-17T00:23:50;100222.53;;;4.96;100.00
72896;BME280;61036;53.224;6.554;2024-03-17T00:26:16;100226.38;;;4.92;100.00
72896;BME280;61036;53.224;6.554;2024-03-17T00:28:41;100242.47;;;4.76;100.00
72896;BME280;61036;53.224;6.554;2024-03-17T00:31:08;100236.94;;;4.79;100.00
72896;BME280;61036;53.224;6.554;2024-03-17T00:33:35;100234.47;;;4.76;100.00
72896;BME280;61036;53.224;6.554;2024-03-17T00:36:01;100235.63;;;4.72;100.00
72896;BME280;61036;53.224;6.554;2024-03-17T00:38:26;100235.50;;;4.74;100.00
72896;BME280;61036;53.224;6.554;2024-03-17T00:40:53;100231.38;;;4.68;100.00
72896;BME280;61036;53.224;6.554;2024-03-17T00:43:18;100236.28;;;4.76;100.00
72896;BME280;61036;53.224;6.554;2024-03-17T00:45:44;100238.53;;;4.68;100.00
72896;BME280;61036;53.224;6.554;2024-03-17T00:48:09;100263.81;;;4.62;100.00
72896;BME280;61036;53.224;6.554;2024-03-17T00:50:35;100259.13;;;4.66;100.00
72896;BME280;61036;53.224;6.554;2024-03-17T00:53:00;100255.00;;;4.60;100.00
72896;BME280;61036;53.224;6.554;2024-03-17T00:55:28;100260.94;;;4.65;100.00
72896;BME280;61036;53.224;6.554;2024-03-17T00:57:53;100252.56;;;4.71;100.00
72896;BME280;61036;53.224;6.554;2024-03-17T01:00:19;100261.72;;;4.67;100.00
72896;BME280;61036;53.224;6.554;2024-03-17T01:02:45;100272.13;;;4.72;100.00
72896;BME280;61036;53.224;6.554;2024-03-17T01:05:11;100304.63;;;4.64;100.00
72896;BME280;61036;53.224;6.554;2024-03-17T01:07:36;100301.38;;;4.59;100.00
72896;BME280;61036;53.224;6.554;2024-03-17T01:10:02;100315.41;;;4.63;100.00
72896;BME280;61036;53.224;6.554;2024-03-17T01:12:28;100312.53;;;4.51;100.00
72896;BME280;61036;53.224;6.554;2024-03-17T01:14:53;100322.16;;;4.38;100.00
72896;BME280;61036;53.224;6.554;2024-03-17T01:17:19;100308.94;;;4.37;100.00
72896;BME280;61036;53.224;6.554;2024-03-17T01:19:45;100299.59;;;4.44;100.00
72896;BME280;61036;53.224;6.554;2024-03-17T01:22:10;100296.25;;;4.40;100.00
72896;BME280;61036;53.224;6.554;2024-03-17T01:24:36;100290.09;;;4.54;100.00
72896;BME280;61036;53.224;6.554;2024-03-17T01:27:04;100291.00;;;4.39;100.00
72896;BME280;61036;53.224;6.554;2024-03-17T01:29:30;100298.06;;;4.40;100.00
72896;BME280;61036;53.224;6.554;2024-03-17T01:31:56;100307.78;;;4.41;100.00
72896;BME280;61036;53.224;6.554;2024-03-17T01:34:21;100307.38;;;4.32;100.00
72896;BME280;61036;53.224;6.554;2024-03-17T01:36:47;100299.84;;;4.39;100.00
72896;BME280;61036;53.224;6.554;2024-03-17T01:39:13;100297.28;;;4.38;100.00
72896;BME280;61036;53.224;6.554;2024-03-17T01:41:39;100301.78;;;4.37;100.00
72896;BME280;61036;53.224;6.554;2024-03-17T01:44:05;100329.09;;;4.10;100.00
72896;BME280;61036;53.224;6.554;2024-03-17T01:46:30;100333.22;;;4.00;100.00
72896;BME280;61036;53.224;6.554;2024-03-17T01:48:56;100322.22;;;4.06;100.00
72896;BME280;61036;53.224;6.554;2024-03-17T01:51:22;100318.25;;;4.13;100.00
72896;BME280;61036;53.224;6.554;2024-03-17T01:53:48;100298.59;;;4.30;100.00
72896;BME280;61036;53.224;6.554;2024-03-17T01:56:16;100316.41;;;4.30;100.00
72896;BME280;61036;53.224;6.554;2024-03-17T01:58:45;100322.63;;;4.30;100.00
72896;BME280;61036;53.224;6.554;2024-03-17T02:01:13;100331.66;;;4.12;100.00
72896;BME280;61036;53.224;6.554;2024-03-17T02:03:42;100314.72;;;3.97;100.00
72896;BME280;61036;53.224;6.554;2024-03-17T02:06:08;100305.75;;;3.98;100.00
72896;BME280;61036;53.224;6.554;2024-03-17T02:08:51;100278.47;;;4.09;100.00
72896;BME280;61036;53.224;6.554;2024-03-17T02:11:43;100272.19;;;4.10;100.00
72896;BME280;61036;53.224;6.554;2024-03-17T02:14:08;100272.22;;;3.94;100.00
72896;BME280;61036;53.224;6.554;2024-03-17T02:16:34;100257.13;;;4.09;100.00
72896;BME280;61036;53.224;6.554;2024-03-17T02:18:59;100268.06;;;4.04;100.00
72896;BME280;61036;53.224;6.554;2024-03-17T02:21:26;100287.50;;;3.90;100.00
72896;BME280;61036;53.224;6.554;2024-03-17T02:23:53;100286.81;;;4.03;100.00
72896;BME280;61036;53.224;6.554;2024-03-17T02:26:19;100301.97;;;3.86;100.00
72896;BME280;61036;53.224;6.554;2024-03-17T02:28:46;100299.47;;;3.83;100.00
72896;BME280;61036;53.224;6.554;2024-03-17T02:31:15;100283.66;;;3.80;100.00
72896;BME280;61036;53.224;6.554;2024-03-17T02:33:41;100279.06;;;3.66;100.00
72896;BME280;61036;53.224;6.554;2024-03-17T02:36:07;100282.34;;;3.72;100.00
72896;BME280;61036;53.224;6.554;2024-03-17T02:38:35;100266.50;;;3.84;100.00
72896;BME280;61036;53.224;6.554;2024-03-17T02:41:19;100259.66;;;3.80;100.00
72896;BME280;61036;53.224;6.554;2024-03-17T02:43:45;100241.56;;;4.01;100.00
72896;BME280;61036;53.224;6.554;2024-03-17T02:46:12;100241.31;;;3.90;100.00
72896;BME280;61036;53.224;6.554;2024-03-17T02:48:39;100239.59;;;3.89;100.00
72896;BME280;61036;53.224;6.554;2024-03-17T02:51:11;100228.47;;;3.97;100.00
72896;BME280;61036;53.224;6.554;2024-03-17T02:53:37;100221.84;;;4.04;100.00
72896;BME280;61036;53.224;6.554;2024-03-17T02:56:02;100224.78;;;3.99;100.00
72896;BME280;61036;53.224;6.554;2024-03-17T02:58:28;100231.56;;;4.05;100.00
72896;BME280;61036;53.224;6.554;2024-03-17T03:00:53;100226.97;;;4.23;100.00
72896;BME280;61036;53.224;6.554;2024-03-17T03:03:19;100244.38;;;4.44;100.00
72896;BME280;61036;53.224;6.554;2024-03-17T03:05:45;100283.47;;;4.61;100.00
72896;BME280;61036;53.224;6.554;2024-03-17T03:08:11;100346.22;;;4.68;100.00
72896;BME280;61036;53.224;6.554;2024-03-17T03:10:36;100382.91;;;4.80;100.00
72896;BME280;61036;53.224;6.554;2024-03-17T03:13:02;100431.00;;;4.65;100.00
72896;BME280;61036;53.224;6.554;2024-03-17T03:15:30;100460.75;;;4.58;100.00
72896;BME280;61036;53.224;6.554;2024-03-17T03:17:57;100487.44;;;4.74;100.00
72896;BME280;61036;53.224;6.554;2024-03-17T03:20:22;100507.28;;;4.70;100.00
72896;BME280;61036;53.224;6.554;2024-03-17T03:22:48;100525.53;;;4.78;100.00
72896;BME280;61036;53.224;6.554;2024-03-17T03:25:13;100540.34;;;4.68;100.00
72896;BME280;61036;53.224;6.554;2024-03-17T03:27:38;100529.13;;;4.93;100.00
72896;BME280;61036;53.224;6.554;2024-03-17T03:30:04;100549.03;;;4.87;100.00
72896;BME280;61036;53.224;6.554;2024-03-17T03:32:32;100557.22;;;4.84;100.00
72896;BME280;61036;53.224;6.554;2024-03-17T03:34:57;100570.25;;;4.74;100.00
72896;BME280;61036;53.224;6.554;2024-03-17T03:37:23;100566.22;;;4.83;100.00
72896;BME280;61036;53.224;6.554;2024-03-17T03:39:48;100578.53;;;4.70;100.00
72896;BME280;61036;53.224;6.554;2024-03-17T03:42:14;100576.28;;;4.78;100.00
72896;BME280;61036;53.224;6.554;2024-03-17T03:44:39;100566.03;;;5.02;100.00
72896;BME280;61036;53.224;6.554;2024-03-17T03:47:05;100576.66;;;4.88;100.00
72896;BME280;61036;53.224;6.554;2024-03-17T03:49:30;100569.38;;;4.74;100.00
72896;BME280;61036;53.224;6.554;2024-03-17T03:51:56;100565.00;;;4.73;100.00
72896;BME280;61036;53.224;6.554;2024-03-17T03:54:21;100551.88;;;4.68;100.00
72896;BME280;61036;53.224;6.554;2024-03-17T03:56:47;100547.50;;;4.83;100.00
72896;BME280;61036;53.224;6.554;2024-03-17T03:59:12;100545.84;;;4.96;100.00
72896;BME280;61036;53.224;6.554;2024-03-17T04:01:38;100536.75;;;4.85;100.00
72896;BME280;61036;53.224;6.554;2024-03-17T04:04:03;100543.47;;;4.76;100.00
72896;BME280;61036;53.224;6.554;2024-03-17T04:06:29;100523.75;;;4.78;100.00
72896;BME280;61036;53.224;6.554;2024-03-17T04:08:54;100505.22;;;4.75;100.00
72896;BME280;61036;53.224;6.554;2024-03-17T04:11:20;100508.78;;;4.90;100.00
72896;BME280;61036;53.224;6.554;2024-03-17T04:13:45;100501.50;;;4.94;100.00
72896;BME280;61036;53.224;6.554;2024-03-17T04:16:12;100511.28;;;4.93;100.00
72896;BME280;61036;53.224;6.554;2024-03-17T04:18:40;100511.56;;;4.89;100.00
72896;BME280;61036;53.224;6.554;2024-03-17T04:21:06;100508.97;;;5.03;100.00
72896;BME280;61036;53.224;6.554;2024-03-17T04:23:32;100523.56;;;4.97;100.00
72896;BME280;61036;53.224;6.554;2024-03-17T04:25:59;100520.69;;;5.00;100.00
72896;BME280;61036;53.224;6.554;2024-03-17T04:28:26;100553.13;;;4.94;100.00
72896;BME280;61036;53.224;6.554;2024-03-17T04:30:51;100558.00;;;5.02;100.00
72896;BME280;61036;53.224;6.554;2024-03-17T04:33:17;100552.31;;;5.08;100.00
72896;BME280;61036;53.224;6.554;2024-03-17T04:35:43;100561.13;;;5.10;100.00
72896;BME280;61036;53.224;6.554;2024-03-17T04:38:08;100581.22;;;5.01;100.00
72896;BME280;61036;53.224;6.554;2024-03-17T04:40:35;100597.41;;;4.98;100.00
72896;BME280;61036;53.224;6.554;2024-03-17T04:43:05;100592.06;;;5.14;100.00
72896;BME280;61036;53.224;6.554;2024-03-17T04:45:31;100597.25;;;5.01;100.00
72896;BME280;61036;53.224;6.554;2024-03-17T04:47:56;100587.00;;;5.10;100.00
72896;BME280;61036;53.224;6.554;2024-03-17T04:50:22;100586.47;;;5.19;100.00
72896;BME280;61036;53.224;6.554;2024-03-17T04:52:47;100571.81;;;5.10;100.00
72896;BME280;61036;53.224;6.554;2024-03-17T04:55:14;100568.19;;;5.11;100.00
72896;BME280;61036;53.224;6.554;2024-03-17T04:57:45;100578.28;;;5.06;100.00
72896;BME280;61036;53.224;6.554;2024-03-17T05:00:11;100584.72;;;5.02;100.00
72896;BME280;61036;53.224;6.554;2024-03-17T05:02:38;100584.91;;;4.99;100.00
72896;BME280;61036;53.224;6.554;2024-03-17T05:05:04;100571.81;;;4.94;100.00
72896;BME280;61036;53.224;6.554;2024-03-17T05:07:31;100570.25;;;4.90;100.00
72896;BME280;61036;53.224;6.554;2024-03-17T05:09:56;100568.19;;;4.95;100.00
72896;BME280;61036;53.224;6.554;2024-03-17T05:12:22;100564.72;;;4.77;100.00
72896;BME280;61036;53.224;6.554;2024-03-17T05:14:48;100541.03;;;4.71;100.00
72896;BME280;61036;53.224;6.554;2024-03-17T05:17:13;100531.56;;;4.81;100.00
72896;BME280;61036;53.224;6.554;2024-03-17T05:19:39;100531.66;;;4.80;100.00
72896;BME280;61036;53.224;6.554;2024-03-17T05:22:04;100519.50;;;4.74;100.00
72896;BME280;61036;53.224;6.554;2024-03-17T05:24:30;100525.00;;;4.71;100.00
72896;BME280;61036;53.224;6.554;2024-03-17T05:26:55;100515.78;;;4.61;100.00
72896;BME280;61036;53.224;6.554;2024-03-17T05:29:21;100503.19;;;4.63;100.00
72896;BME280;61036;53.224;6.554;2024-03-17T05:31:48;100487.00;;;4.66;100.00
72896;BME280;61036;53.224;6.554;2024-03-17T05:34:17;100475.81;;;4.59;100.00
72896;BME280;61036;53.224;6.554;2024-03-17T05:36:42;100459.97;;;4.72;100.00
72896;BME280;61036;53.224;6.554;2024-03-17T05:39:08;100445.84;;;4.70;100.00
72896;BME280;61036;53.224;6.554;2024-03-17T05:41:33;100419.91;;;4.72;100.00
72896;BME280;61036;53.224;6.554;2024-03-17T05:43:59;100395.50;;;4.78;100.00
72896;BME280;61036;53.224;6.554;2024-03-17T05:46:25;100378.28;;;4.68;100.00
72896;BME280;61036;53.224;6.554;2024-03-17T05:48:52;100367.28;;;4.89;100.00
72896;BME280;61036;53.224;6.554;2024-03-17T05:51:17;100360.69;;;4.80;100.00
72896;BME280;61036;53.224;6.554;2024-03-17T05:53:43;100346.66;;;4.76;100.00
72896;BME280;61036;53.224;6.554;2024-03-17T05:56:12;100324.72;;;4.86;100.00
72896;BME280;61036;53.224;6.554;2024-03-17T05:58:38;100305.34;;;4.82;100.00
72896;BME280;61036;53.224;6.554;2024-03-17T06:01:05;100302.59;;;4.84;100.00
72896;BME280;61036;53.224;6.554;2024-03-17T06:03:32;100299.28;;;4.94;100.00
72896;BME280;61036;53.224;6.554;2024-03-17T06:06:00;100304.88;;;4.90;100.00
72896;BME280;61036;53.224;6.554;2024-03-17T06:08:27;100310.03;;;4.93;100.00
72896;BME280;61036;53.224;6.554;2024-03-17T06:10:52;100305.25;;;4.84;100.00
72896;BME280;61036;53.224;6.554;2024-03-17T06:13:17;100303.94;;;4.91;100.00
72896;BME280;61036;53.224;6.554;2024-03-17T06:15:44;100298.19;;;4.82;100.00
72896;BME280;61036;53.224;6.554;2024-03-17T06:18:13;100296.97;;;4.88;100.00
72896;BME280;61036;53.224;6.554;2024-03-17T06:20:41;100302.13;;;4.91;100.00
72896;BME280;61036;53.224;6.554;2024-03-17T06:23:10;100300.13;;;4.95;100.00
72896;BME280;61036;53.224;6.554;2024-03-17T06:25:44;100305.22;;;5.14;100.00
72896;BME280;61036;53.224;6.554;2024-03-17T06:28:10;100309.22;;;5.07;100.00
72896;BME280;61036;53.224;6.554;2024-03-17T06:30:46;100315.28;;;5.39;100.00
72896;BME280;61036;53.224;6.554;2024-03-17T06:33:19;100327.84;;;5.22;100.00
72896;BME280;61036;53.224;6.554;2024-03-17T06:35:45;100324.78;;;5.14;100.00
72896;BME280;61036;53.224;6.554;2024-03-17T06:38:11;100323.88;;;5.30;100.00
72896;BME280;61036;53.224;6.554;2024-03-17T06:40:37;100331.41;;;5.37;100.00
72896;BME280;61036;53.224;6.554;2024-03-17T06:43:04;100342.75;;;5.41;100.00
72896;BME280;61036;53.224;6.554;2024-03-17T06:45:29;100350.97;;;5.38;100.00
72896;BME280;61036;53.224;6.554;2024-03-17T06:47:55;100351.28;;;5.33;100.00
72896;BME280;61036;53.224;6.554;2024-03-17T06:50:21;100348.78;;;5.30;100.00
72896;BME280;61036;53.224;6.554;2024-03-17T06:52:46;100356.50;;;5.35;100.00
72896;BME280;61036;53.224;6.554;2024-03-17T06:55:12;100353.22;;;5.60;100.00
72896;BME280;61036;53.224;6.554;2024-03-17T06:57:37;100367.41;;;5.74;100.00
72896;BME280;61036;53.224;6.554;2024-03-17T07:00:03;100387.50;;;5.67;100.00
72896;BME280;61036;53.224;6.554;2024-03-17T07:02:31;100406.31;;;5.66;100.00
72896;BME280;61036;53.224;6.554;2024-03-17T07:04:58;100380.44;;;5.95;100.00
72896;BME280;61036;53.224;6.554;2024-03-17T07:07:26;100387.22;;;6.01;100.00
72896;BME280;61036;53.224;6.554;2024-03-17T07:09:52;100414.47;;;6.07;100.00
72896;BME280;61036;53.224;6.554;2024-03-17T07:12:17;100409.59;;;6.55;100.00
72896;BME280;61036;53.224;6.554;2024-03-17T07:14:44;100452.03;;;6.20;100.00
72896;BME280;61036;53.224;6.554;2024-03-17T07:17:09;100467.00;;;6.66;100.00
72896;BME280;61036;53.224;6.554;2024-03-17T07:19:35;100475.75;;;6.82;100.00
72896;BME280;61036;53.224;6.554;2024-03-17T07:22:02;100499.69;;;6.71;100.00
72896;BME280;61036;53.224;6.554;2024-03-17T07:24:29;100515.63;;;6.45;100.00
72896;BME280;61036;53.224;6.554;2024-03-17T07:26:55;100513.31;;;6.53;100.00
72896;BME280;61036;53.224;6.554;2024-03-17T07:29:20;100532.16;;;6.52;100.00
72896;BME280;61036;53.224;6.554;2024-03-17T07:31:46;100521.16;;;6.28;100.00
72896;BME280;61036;53.224;6.554;2024-03-17T07:34:12;100503.28;;;6.28;100.00
72896;BME280;61036;53.224;6.554;2024-03-17T07:36:37;100502.34;;;6.15;100.00
72896;BME280;61036;53.224;6.554;2024-03-17T07:39:04;100493.25;;;6.17;100.00
72896;BME280;61036;53.224;6.554;2024-03-17T07:41:30;100494.09;;;6.18;100.00
72896;BME280;61036;53.224;6.554;2024-03-17T07:43:55;100490.59;;;6.32;100.00
72896;BME280;61036;53.224;6.554;2024-03-17T07:46:21;100475.06;;;6.37;100.00
72896;BME280;61036;53.224;6.554;2024-03-17T07:48:46;100476.88;;;6.22;100.00
72896;BME280;61036;53.224;6.554;2024-03-17T07:51:16;100470.97;;;6.17;100.00
72896;BME280;61036;53.224;6.554;2024-03-17T07:53:43;100474.41;;;6.33;100.00
72896;BME280;61036;53.224;6.554;2024-03-17T07:56:17;100469.69;;;6.51;100.00
72896;BME280;61036;53.224;6.554;2024-03-17T07:58:44;100477.31;;;6.72;100.00
72896;BME280;61036;53.224;6.554;2024-03-17T08:01:13;100492.19;;;6.49;100.00
72896;BME280;61036;53.224;6.554;2024-03-17T08:03:40;100487.03;;;6.87;100.00
72896;BME280;61036;53.224;6.554;2024-03-17T08:06:07;100532.56;;;6.46;100.00
72896;BME280;61036;53.224;6.554;2024-03-17T08:08:34;100531.56;;;6.75;100.00
72896;BME280;61036;53.224;6.554;2024-03-17T08:11:00;100526.34;;;6.59;100.00
72896;BME280;61036;53.224;6.554;2024-03-17T08:13:29;100534.63;;;6.83;100.00
72896;BME280;61036;53.224;6.554;2024-03-17T08:16:02;100557.50;;;6.60;100.00
72896;BME280;61036;53.224;6.554;2024-03-17T08:18:28;100538.75;;;7.16;100.00
72896;BME280;61036;53.224;6.554;2024-03-17T08:20:54;100568.25;;;7.16;100.00
72896;BME280;61036;53.224;6.554;2024-03-17T08:23:20;100598.75;;;7.28;100.00
72896;BME280;61036;53.224;6.554;2024-03-17T08:28:19;100637.66;;;7.35;100.00
72896;BME280;61036;53.224;6.554;2024-03-17T08:30:53;100621.16;;;8.08;100.00
72896;BME280;61036;53.224;6.554;2024-03-17T08:33:19;100715.88;;;7.70;100.00
72896;BME280;61036;53.224;6.554;2024-03-17T08:35:58;100730.97;;;7.86;100.00
72896;BME280;61036;53.224;6.554;2024-03-17T08:38:25;100706.28;;;7.66;100.00
72896;BME280;61036;53.224;6.554;2024-03-17T08:40:51;100704.63;;;7.22;100.00
72896;BME280;61036;53.224;6.554;2024-03-17T08:43:18;100671.34;;;7.39;100.00
72896;BME280;61036;53.224;6.554;2024-03-17T08:45:44;100646.50;;;7.64;100.00
72896;BME280;61036;53.224;6.554;2024-03-17T08:48:10;100670.28;;;7.42;100.00
72896;BME280;61036;53.224;6.554;2024-03-17T08:50:38;100648.09;;;7.67;100.00
72896;BME280;61036;53.224;6.554;2024-03-17T08:53:05;100673.59;;;7.60;100.00
72896;BME280;61036;53.224;6.554;2024-03-17T08:55:31;100653.03;;;8.00;100.00
72896;BME280;61036;53.224;6.554;2024-03-17T08:57:57;100653.16;;;7.44;100.00
72896;BME280;61036;53.224;6.554;2024-03-17T09:00:22;100613.91;;;7.83;100.00
72896;BME280;61036;53.224;6.554;2024-03-17T09:02:48;100620.41;;;7.79;100.00
72896;BME280;61036;53.224;6.554;2024-03-17T09:05:14;100619.69;;;7.77;100.00
72896;BME280;61036;53.224;6.554;2024-03-17T09:07:39;100636.69;;;7.90;100.00
72896;BME280;61036;53.224;6.554;2024-03-17T09:10:05;100644.25;;;7.71;100.00
72896;BME280;61036;53.224;6.554;2024-03-17T09:12:31;100594.50;;;8.05;100.00
72896;BME280;61036;53.224;6.554;2024-03-17T09:14:57;100646.94;;;8.11;100.00
72896;BME280;61036;53.224;6.554;2024-03-17T09:17:23;100646.97;;;8.23;100.00
72896;BME280;61036;53.224;6.554;2024-03-17T09:19:48;100682.97;;;8.74;100.00
72896;BME280;61036;53.224;6.554;2024-03-17T09:22:14;100678.66;;;8.18;100.00
72896;BME280;61036;53.224;6.554;2024-03-17T09:24:39;100667.91;;;8.45;100.00
72896;BME280;61036;53.224;6.554;2024-03-17T09:27:06;100672.47;;;9.33;100.00
72896;BME280;61036;53.224;6.554;2024-03-17T09:29:31;100748.91;;;9.05;100.00
72896;BME280;61036;53.224;6.554;2024-03-17T09:31:58;100751.25;;;8.84;100.00
72896;BME280;61036;53.224;6.554;2024-03-17T09:34:24;100743.44;;;8.14;100.00
72896;BME280;61036;53.224;6.554;2024-03-17T09:36:49;100708.78;;;8.36;100.00
72896;BME280;61036;53.224;6.554;2024-03-17T09:39:15;100706.06;;;8.23;100.00
72896;BME280;61036;53.224;6.554;2024-03-17T09:41:41;100692.09;;;8.58;100.00
72896;BME280;61036;53.224;6.554;2024-03-17T09:44:11;100720.91;;;8.69;100.00
72896;BME280;61036;53.224;6.554;2024-03-17T09:46:38;100755.97;;;8.93;100.00
72896;BME280;61036;53.224;6.554;2024-03-17T09:49:09;100837.88;;;9.02;100.00
72896;BME280;61036;53.224;6.554;2024-03-17T09:51:39;100869.41;;;9.00;100.00
72896;BME280;61036;53.224;6.554;2024-03-17T09:54:17;100864.72;;;9.54;100.00
72896;BME280;61036;53.224;6.554;2024-03-17T09:56:43;100873.78;;;8.88;100.00
72896;BME280;61036;53.224;6.554;2024-03-17T09:59:08;100852.16;;;8.89;100.00
72896;BME280;61036;53.224;6.554;2024-03-17T10:01:34;100842.78;;;8.82;100.00
72896;BME280;61036;53.224;6.554;2024-03-17T10:03:59;100828.13;;;8.61;100.00
72896;BME280;61036;53.224;6.554;2024-03-17T10:06:29;100824.69;;;8.72;100.00
72896;BME280;61036;53.224;6.554;2024-03-17T10:08:59;100827.50;;;8.83;100.00
72896;BME280;61036;53.224;6.554;2024-03-17T10:11:33;100818.44;;;8.71;100.00
72896;BME280;61036;53.224;6.554;2024-03-17T10:14:06;100812.34;;;8.82;100.00
72896;BME280;61036;53.224;6.554;2024-03-17T10:16:35;100776.00;;;9.02;100.00
72896;BME280;61036;53.224;6.554;2024-03-17T10:19:12;100796.16;;;9.22;100.00
72896;BME280;61036;53.224;6.554;2024-03-17T10:21:40;100813.81;;;9.51;100.00
72896;BME280;61036;53.224;6.554;2024-03-17T10:26:36;100779.78;;;9.12;100.00
72896;BME280;61036;53.224;6.554;2024-03-17T10:29:02;100815.38;;;8.90;100.00
72896;BME280;61036;53.224;6.554;2024-03-17T10:31:28;100794.63;;;9.05;100.00
72896;BME280;61036;53.224;6.554;2024-03-17T10:34:02;100812.16;;;9.10;100.00
72896;BME280;61036;53.224;6.554;2024-03-17T10:36:28;100793.28;;;8.72;100.00
72896;BME280;61036;53.224;6.554;2024-03-17T10:38:53;100789.53;;;8.87;100.00
72896;BME280;61036;53.224;6.554;2024-03-17T10:41:21;100767.94;;;9.02;100.00
72896;BME280;61036;53.224;6.554;2024-03-17T10:43:47;100790.53;;;8.99;100.00
72896;BME280;61036;53.224;6.554;2024-03-17T10:46:14;100769.00;;;8.86;100.00
72896;BME280;61036;53.224;6.554;2024-03-17T10:48:41;100739.75;;;9.33;100.00
72896;BME280;61036;53.224;6.554;2024-03-17T10:51:14;100790.13;;;9.18;100.00
72896;BME280;61036;53.224;6.554;2024-03-17T10:53:42;100783.09;;;9.41;100.00
72896;BME280;61036;53.224;6.554;2024-03-17T10:56:12;100812.16;;;9.10;100.00
72896;BME280;61036;53.224;6.554;2024-03-17T10:58:48;100795.38;;;9.20;100.00
72896;BME280;61036;53.224;6.554;2024-03-17T11:01:19;100796.16;;;9.09;100.00
72896;BME280;61036;53.224;6.554;2024-03-17T11:03:46;100783.88;;;9.18;100.00
72896;BME280;61036;53.224;6.554;2024-03-17T11:06:12;100806.25;;;9.31;100.00
72896;BME280;61036;53.224;6.554;2024-03-17T11:08:38;100818.75;;;9.57;100.00
72896;BME280;61036;53.224;6.554;2024-03-17T11:11:07;100836.50;;;9.34;100.00
72896;BME280;61036;53.224;6.554;2024-03-17T11:13:34;100852.09;;;9.16;100.00
72896;BME280;61036;53.224;6.554;2024-03-17T11:16:02;100855.91;;;9.39;100.00
72896;BME280;61036;53.224;6.554;2024-03-17T11:18:37;100846.28;;;9.74;100.00
72896;BME280;61036;53.224;6.554;2024-03-17T11:21:19;100872.38;;;9.73;100.00
72896;BME280;61036;53.224;6.554;2024-03-17T11:23:57;100904.00;;;9.95;100.00
72896;BME280;61036;53.224;6.554;2024-03-17T11:26:28;100888.44;;;10.24;100.00
72896;BME280;61036;53.224;6.554;2024-03-17T11:28:54;100883.03;;;10.50;100.00
72896;BME280;61036;53.224;6.554;2024-03-17T11:31:33;100883.91;;;10.38;100.00
72896;BME280;61036;53.224;6.554;2024-03-17T11:33:59;100886.22;;;10.55;100.00
72896;BME280;61036;53.224;6.554;2024-03-17T11:36:34;100955.19;;;10.34;100.00
72896;BME280;61036;53.224;6.554;2024-03-17T11:47:03;100981.28;;;10.20;100.00
72896;BME280;61036;53.224;6.554;2024-03-17T11:49:31;100969.13;;;10.02;100.00
72896;BME280;61036;53.224;6.554;2024-03-17T11:52:01;100935.78;;;10.28;100.00
72896;BME280;61036;53.224;6.554;2024-03-17T11:54:36;100930.78;;;10.48;100.00
72896;BME280;61036;53.224;6.554;2024-03-17T11:57:06;100972.13;;;10.36;100.00
72896;BME280;61036;53.224;6.554;2024-03-17T11:59:33;100964.66;;;10.14;100.00
72896;BME280;61036;53.224;6.554;2024-03-17T12:01:59;100940.16;;;10.55;100.00
72896;BME280;61036;53.224;6.554;2024-03-17T12:04:25;100996.88;;;10.66;100.00
72896;BME280;61036;53.224;6.554;2024-03-17T12:06:52;101065.91;;;10.43;100.00
72896;BME280;61036;53.224;6.554;2024-03-17T12:09:19;101081.78;;;10.35;100.00
72896;BME280;61036;53.224;6.554;2024-03-17T12:11:51;101103.13;;;10.51;100.00
72896;BME280;61036;53.224;6.554;2024-03-17T12:14:23;101113.44;;;10.83;100.00
72896;BME280;61036;53.224;6.554;2024-03-17T12:16:55;101101.16;;;10.79;100.00
72896;BME280;61036;53.224;6.554;2024-03-17T12:19:22;101120.66;;;10.95;100.00
72896;BME280;61036;53.224;6.554;2024-03-17T12:21:50;101179.94;;;10.58;100.00
72896;BME280;61036;53.224;6.554;2024-03-17T12:26:43;101195.44;;;11.18;100.00
72896;BME280;61036;53.224;6.554;2024-03-17T12:29:42;101201.78;;;11.30;100.00
72896;BME280;61036;53.224;6.554;2024-03-17T12:34:37;101252.44;;;10.75;100.00
72896;BME280;61036;53.224;6.554;2024-03-17T12:37:04;101247.50;;;11.20;100.00
72896;BME280;61036;53.224;6.554;2024-03-17T12:39:41;101280.75;;;10.95;100.00
72896;BME280;61036;53.224;6.554;2024-03-17T12:42:11;101257.28;;;11.47;100.00
72896;BME280;61036;53.224;6.554;2024-03-17T12:44:47;101271.81;;;11.83;100.00
72896;BME280;61036;53.224;6.554;2024-03-17T12:47:18;101301.53;;;11.83;100.00
72896;BME280;61036;53.224;6.554;2024-03-17T12:49:57;101352.44;;;11.25;100.00
72896;BME280;61036;53.224;6.554;2024-03-17T12:52:26;101362.94;;;11.30;100.00
72896;BME280;61036;53.224;6.554;2024-03-17T12:55:01;101371.91;;;11.43;100.00
72896;BME280;61036;53.224;6.554;2024-03-17T12:57:48;101297.56;;;11.63;100.00
72896;BME280;61036;53.224;6.554;2024-03-17T13:00:32;101300.06;;;11.53;100.00
72896;BME280;61036;53.224;6.554;2024-03-17T13:03:02;101268.63;;;11.39;100.00
72896;BME280;61036;53.224;6.554;2024-03-17T13:05:29;101226.88;;;11.19;100.00
72896;BME280;61036;53.224;6.554;2024-03-17T13:07:55;101216.41;;;11.02;100.00